sensor_id;sensor_type;location;lat;lon;timestamp;P1;durP1;ratioP1;P2;durP2;ratioP2
1346;SDS011;667;48.796;9.480;2022-10-16T00:00:44;8.10;;;3.87;;
1346;SDS011;667;48.796;9.480;2022-10-16T00:03:09;7.20;;;4.37;;
1346;SDS011;667;48.796;9.480;2022-10-16T00:05:42;3.27;;;2.97;;
1346;SDS011;667;48.796;9.480;2022-10-16T00:08:10;5.80;;;3.37;;
1346;SDS011;667;48.796;9.480;2022-10-16T00:10:36;15.63;;;3.53;;
1346;SDS011;667;48.796;9.480;2022-10-16T00:13:03;8.43;;;3.03;;
1346;SDS011;667;48.796;9.480;2022-10-16T00:15:29;3.63;;;2.33;;
1346;SDS011;667;48.796;9.480;2022-10-16T00:17:57;3.30;;;3.00;;
1346;SDS011;667;48.796;9.480;2022-10-16T00:20:23;4.80;;;2.77;;
1346;SDS011;667;48.796;9.480;2022-10-16T00:22:48;3.80;;;2.57;;
1346;SDS011;667;48.796;9.480;2022-10-16T00:25:14;6.30;;;2.53;;
1346;SDS011;667;48.796;9.480;2022-10-16T00:27:39;5.90;;;2.43;;
1346;SDS011;667;48.796;9.480;2022-10-16T00:30:05;3.40;;;2.47;;
1346;SDS011;667;48.796;9.480;2022-10-16T00:32:33;11.80;;;3.10;;
1346;SDS011;667;48.796;9.480;2022-10-16T00:34:58;6.50;;;2.50;;
1346;SDS011;667;48.796;9.480;2022-10-16T00:37:24;3.67;;;2.43;;
1346;SDS011;667;48.796;9.480;2022-10-16T00:39:49;7.40;;;2.37;;
1346;SDS011;667;48.796;9.480;2022-10-16T00:42:16;5.17;;;2.23;;
1346;SDS011;667;48.796;9.480;2022-10-16T00:44:44;3.50;;;2.10;;
1346;SDS011;667;48.796;9.480;2022-10-16T00:47:31;5.77;;;2.30;;
1346;SDS011;667;48.796;9.480;2022-10-16T00:50:09;3.80;;;2.20;;
1346;SDS011;667;48.796;9.480;2022-10-16T00:52:52;2.90;;;2.13;;
1346;SDS011;667;48.796;9.480;2022-10-16T00:55:18;2.40;;;1.97;;
1346;SDS011;667;48.796;9.480;2022-10-16T00:57:46;4.73;;;2.40;;
1346;SDS011;667;48.796;9.480;2022-10-16T01:00:13;4.90;;;2.87;;
1346;SDS011;667;48.796;9.480;2022-10-16T01:02:41;4.00;;;2.30;;
1346;SDS011;667;48.796;9.480;2022-10-16T01:05:07;3.00;;;2.07;;
1346;SDS011;667;48.796;9.480;2022-10-16T01:15:36;2.20;;;2.00;;
1346;SDS011;667;48.796;9.480;2022-10-16T01:23:27;3.00;;;2.20;;
1346;SDS011;667;48.796;9.480;2022-10-16T01:26:13;4.70;;;2.23;;
1346;SDS011;667;48.796;9.480;2022-10-16T01:28:45;3.90;;;2.03;;
1346;SDS011;667;48.796;9.480;2022-10-16T01:31:15;10.57;;;2.23;;
1346;SDS011;667;48.796;9.480;2022-10-16T01:33:46;5.53;;;2.40;;
1346;SDS011;667;48.796;9.480;2022-10-16T01:39:35;10.20;;;2.50;;
1346;SDS011;667;48.796;9.480;2022-10-16T01:42:14;8.83;;;2.17;;
1346;SDS011;667;48.796;9.480;2022-10-16T01:44:43;3.23;;;1.97;;
1346;SDS011;667;48.796;9.480;2022-10-16T01:47:11;5.00;;;2.63;;
1346;SDS011;667;48.796;9.480;2022-10-16T01:49:38;6.87;;;2.67;;
1346;SDS011;667;48.796;9.480;2022-10-16T01:52:06;4.50;;;2.40;;
1346;SDS011;667;48.796;9.480;2022-10-16T01:54:36;9.57;;;2.90;;
1346;SDS011;667;48.796;9.480;2022-10-16T01:57:05;4.70;;;2.40;;
1346;SDS011;667;48.796;9.480;2022-10-16T01:59:32;3.87;;;2.30;;
1346;SDS011;667;48.796;9.480;2022-10-16T02:02:04;2.63;;;2.03;;
1346;SDS011;667;48.796;9.480;2022-10-16T02:04:36;4.43;;;2.70;;
1346;SDS011;667;48.796;9.480;2022-10-16T02:07:04;6.87;;;2.60;;
1346;SDS011;667;48.796;9.480;2022-10-16T02:09:32;3.87;;;2.50;;
1346;SDS011;667;48.796;9.480;2022-10-16T02:11:59;10.23;;;2.37;;
1346;SDS011;667;48.796;9.480;2022-10-16T02:14:28;5.97;;;2.60;;
1346;SDS011;667;48.796;9.480;2022-10-16T02:16:54;3.93;;;2.30;;
1346;SDS011;667;48.796;9.480;2022-10-16T02:19:20;8.73;;;2.97;;
1346;SDS011;667;48.796;9.480;2022-10-16T02:21:48;3.93;;;2.30;;
1346;SDS011;667;48.796;9.480;2022-10-16T02:29:56;3.83;;;2.50;;
1346;SDS011;667;48.796;9.480;2022-10-16T02:32:32;7.67;;;3.37;;
1346;SDS011;667;48.796;9.480;2022-10-16T02:34:59;6.67;;;2.97;;
1346;SDS011;667;48.796;9.480;2022-10-16T02:37:25;7.37;;;3.43;;
1346;SDS011;667;48.796;9.480;2022-10-16T02:39:53;5.40;;;3.07;;
1346;SDS011;667;48.796;9.480;2022-10-16T02:42:20;7.97;;;2.90;;
1346;SDS011;667;48.796;9.480;2022-10-16T02:44:52;5.10;;;2.30;;
1346;SDS011;667;48.796;9.480;2022-10-16T02:47:17;3.73;;;2.47;;
1346;SDS011;667;48.796;9.480;2022-10-16T02:49:43;3.43;;;2.37;;
1346;SDS011;667;48.796;9.480;2022-10-16T02:52:09;6.23;;;3.27;;
1346;SDS011;667;48.796;9.480;2022-10-16T02:54:34;3.07;;;2.33;;
1346;SDS011;667;48.796;9.480;2022-10-16T02:57:00;4.93;;;2.27;;
1346;SDS011;667;48.796;9.480;2022-10-16T02:59:25;4.67;;;2.27;;
1346;SDS011;667;48.796;9.480;2022-10-16T03:01:51;2.70;;;2.23;;
1346;SDS011;667;48.796;9.480;2022-10-16T03:04:16;6.00;;;2.33;;
1346;SDS011;667;48.796;9.480;2022-10-16T03:06:42;5.13;;;2.43;;
1346;SDS011;667;48.796;9.480;2022-10-16T03:09:07;6.07;;;3.23;;
1346;SDS011;667;48.796;9.480;2022-10-16T03:11:33;6.07;;;2.07;;
1346;SDS011;667;48.796;9.480;2022-10-16T03:13:58;9.70;;;1.90;;
1346;SDS011;667;48.796;9.480;2022-10-16T03:16:24;6.40;;;2.60;;
1346;SDS011;667;48.796;9.480;2022-10-16T03:18:50;4.53;;;2.10;;
1346;SDS011;667;48.796;9.480;2022-10-16T03:21:15;2.40;;;2.20;;
1346;SDS011;667;48.796;9.480;2022-10-16T03:23:41;2.67;;;2.17;;
1346;SDS011;667;48.796;9.480;2022-10-16T03:26:07;5.87;;;2.40;;
1346;SDS011;667;48.796;9.480;2022-10-16T03:28:32;2.77;;;2.50;;
1346;SDS011;667;48.796;9.480;2022-10-16T03:30:58;4.50;;;2.30;;
1346;SDS011;667;48.796;9.480;2022-10-16T03:33:24;4.67;;;2.00;;
1346;SDS011;667;48.796;9.480;2022-10-16T03:35:53;6.50;;;2.40;;
1346;SDS011;667;48.796;9.480;2022-10-16T03:38:19;2.87;;;2.10;;
1346;SDS011;667;48.796;9.480;2022-10-16T03:40:45;4.00;;;2.37;;
1346;SDS011;667;48.796;9.480;2022-10-16T03:43:11;2.10;;;2.00;;
1346;SDS011;667;48.796;9.480;2022-10-16T03:45:37;2.80;;;2.43;;
1346;SDS011;667;48.796;9.480;2022-10-16T03:48:02;4.17;;;1.93;;
1346;SDS011;667;48.796;9.480;2022-10-16T03:50:28;3.20;;;3.00;;
1346;SDS011;667;48.796;9.480;2022-10-16T03:52:54;3.60;;;2.13;;
1346;SDS011;667;48.796;9.480;2022-10-16T03:55:20;2.90;;;2.30;;
1346;SDS011;667;48.796;9.480;2022-10-16T03:57:46;5.00;;;2.47;;
1346;SDS011;667;48.796;9.480;2022-10-16T04:00:11;4.50;;;2.27;;
1346;SDS011;667;48.796;9.480;2022-10-16T04:02:37;5.63;;;1.83;;
1346;SDS011;667;48.796;9.480;2022-10-16T04:05:03;3.50;;;2.10;;
1346;SDS011;667;48.796;9.480;2022-10-16T04:07:29;5.03;;;1.93;;
1346;SDS011;667;48.796;9.480;2022-10-16T04:09:55;2.00;;;1.90;;
1346;SDS011;667;48.796;9.480;2022-10-16T04:12:22;7.13;;;2.53;;
1346;SDS011;667;48.796;9.480;2022-10-16T04:14:47;2.40;;;2.03;;
1346;SDS011;667;48.796;9.480;2022-10-16T04:17:13;2.30;;;1.80;;
1346;SDS011;667;48.796;9.480;2022-10-16T04:19:38;4.23;;;2.37;;
1346;SDS011;667;48.796;9.480;2022-10-16T04:22:04;5.50;;;2.07;;
1346;SDS011;667;48.796;9.480;2022-10-16T04:24:29;4.90;;;2.10;;
1346;SDS011;667;48.796;9.480;2022-10-16T04:26:55;4.20;;;2.07;;
1346;SDS011;667;48.796;9.480;2022-10-16T04:29:20;6.13;;;2.30;;
1346;SDS011;667;48.796;9.480;2022-10-16T04:31:46;5.50;;;1.90;;
1346;SDS011;667;48.796;9.480;2022-10-16T04:34:12;2.50;;;2.20;;
1346;SDS011;667;48.796;9.480;2022-10-16T04:36:37;4.43;;;2.20;;
1346;SDS011;667;48.796;9.480;2022-10-16T04:39:03;4.40;;;1.90;;
1346;SDS011;667;48.796;9.480;2022-10-16T04:41:29;8.20;;;2.17;;
1346;SDS011;667;48.796;9.480;2022-10-16T04:43:54;2.87;;;1.70;;
1346;SDS011;667;48.796;9.480;2022-10-16T04:46:20;3.63;;;1.63;;
1346;SDS011;667;48.796;9.480;2022-10-16T04:48:45;3.47;;;1.73;;
1346;SDS011;667;48.796;9.480;2022-10-16T04:51:11;4.97;;;2.30;;
1346;SDS011;667;48.796;9.480;2022-10-16T04:53:37;3.00;;;2.30;;
1346;SDS011;667;48.796;9.480;2022-10-16T04:56:03;3.67;;;2.87;;
1346;SDS011;667;48.796;9.480;2022-10-16T04:58:28;3.00;;;2.00;;
1346;SDS011;667;48.796;9.480;2022-10-16T05:00:54;1.73;;;1.57;;
1346;SDS011;667;48.796;9.480;2022-10-16T05:03:20;2.87;;;1.80;;
1346;SDS011;667;48.796;9.480;2022-10-16T05:05:45;6.80;;;2.37;;
1346;SDS011;667;48.796;9.480;2022-10-16T05:08:15;3.40;;;2.10;;
1346;SDS011;667;48.796;9.480;2022-10-16T05:10:41;6.20;;;2.43;;
1346;SDS011;667;48.796;9.480;2022-10-16T05:13:07;4.00;;;1.97;;
1346;SDS011;667;48.796;9.480;2022-10-16T05:15:33;5.43;;;2.13;;
1346;SDS011;667;48.796;9.480;2022-10-16T05:17:59;3.27;;;1.90;;
1346;SDS011;667;48.796;9.480;2022-10-16T05:20:24;3.90;;;1.80;;
1346;SDS011;667;48.796;9.480;2022-10-16T05:22:50;6.33;;;2.10;;
1346;SDS011;667;48.796;9.480;2022-10-16T05:25:16;2.63;;;1.80;;
1346;SDS011;667;48.796;9.480;2022-10-16T05:27:42;5.13;;;1.87;;
1346;SDS011;667;48.796;9.480;2022-10-16T05:30:07;6.20;;;2.17;;
1346;SDS011;667;48.796;9.480;2022-10-16T05:32:33;2.00;;;1.60;;
1346;SDS011;667;48.796;9.480;2022-10-16T05:34:59;3.03;;;2.13;;
1346;SDS011;667;48.796;9.480;2022-10-16T05:37:25;2.13;;;1.70;;
1346;SDS011;667;48.796;9.480;2022-10-16T05:39:52;2.40;;;1.60;;
1346;SDS011;667;48.796;9.480;2022-10-16T05:42:18;5.37;;;2.00;;
1346;SDS011;667;48.796;9.480;2022-10-16T05:44:43;6.97;;;2.00;;
1346;SDS011;667;48.796;9.480;2022-10-16T05:47:09;4.80;;;1.90;;
1346;SDS011;667;48.796;9.480;2022-10-16T05:49:37;4.73;;;2.10;;
1346;SDS011;667;48.796;9.480;2022-10-16T05:52:02;5.57;;;1.90;;
1346;SDS011;667;48.796;9.480;2022-10-16T05:54:28;3.20;;;1.50;;
1346;SDS011;667;48.796;9.480;2022-10-16T05:56:53;3.43;;;1.70;;
1346;SDS011;667;48.796;9.480;2022-10-16T05:59:19;7.43;;;2.40;;
1346;SDS011;667;48.796;9.480;2022-10-16T06:01:44;12.77;;;1.87;;
1346;SDS011;667;48.796;9.480;2022-10-16T06:04:10;4.97;;;1.97;;
1346;SDS011;667;48.796;9.480;2022-10-16T06:06:35;2.17;;;1.97;;
1346;SDS011;667;48.796;9.480;2022-10-16T06:09:02;6.47;;;2.73;;
1346;SDS011;667;48.796;9.480;2022-10-16T06:11:28;8.50;;;2.20;;
1346;SDS011;667;48.796;9.480;2022-10-16T06:13:56;5.00;;;2.80;;
1346;SDS011;667;48.796;9.480;2022-10-16T06:16:24;6.03;;;3.37;;
1346;SDS011;667;48.796;9.480;2022-10-16T06:18:51;2.53;;;1.30;;
1346;SDS011;667;48.796;9.480;2022-10-16T06:21:18;6.53;;;1.93;;
1346;SDS011;667;48.796;9.480;2022-10-16T06:23:45;3.30;;;1.57;;
1346;SDS011;667;48.796;9.480;2022-10-16T06:26:13;1.67;;;1.50;;
1346;SDS011;667;48.796;9.480;2022-10-16T06:28:40;2.70;;;1.30;;
1346;SDS011;667;48.796;9.480;2022-10-16T06:31:07;3.50;;;1.50;;
1346;SDS011;667;48.796;9.480;2022-10-16T06:33:33;4.50;;;1.90;;
1346;SDS011;667;48.796;9.480;2022-10-16T06:36:03;4.73;;;1.50;;
1346;SDS011;667;48.796;9.480;2022-10-16T06:38:37;3.07;;;1.67;;
1346;SDS011;667;48.796;9.480;2022-10-16T06:41:03;3.30;;;1.20;;
1346;SDS011;667;48.796;9.480;2022-10-16T06:43:30;4.90;;;1.63;;
1346;SDS011;667;48.796;9.480;2022-10-16T06:46:02;4.13;;;1.77;;
1346;SDS011;667;48.796;9.480;2022-10-16T06:48:29;2.87;;;1.60;;
1346;SDS011;667;48.796;9.480;2022-10-16T06:53:51;8.23;;;2.23;;
1346;SDS011;667;48.796;9.480;2022-10-16T06:56:22;6.63;;;3.03;;
1346;SDS011;667;48.796;9.480;2022-10-16T06:58:50;5.23;;;2.80;;
1346;SDS011;667;48.796;9.480;2022-10-16T07:01:16;4.20;;;2.60;;
1346;SDS011;667;48.796;9.480;2022-10-16T07:03:44;3.83;;;2.50;;
1346;SDS011;667;48.796;9.480;2022-10-16T07:06:11;4.40;;;4.00;;
1346;SDS011;667;48.796;9.480;2022-10-16T07:08:41;4.73;;;4.33;;
1346;SDS011;667;48.796;9.480;2022-10-16T07:11:08;3.50;;;3.20;;
1346;SDS011;667;48.796;9.480;2022-10-16T07:13:36;4.67;;;4.27;;
1346;SDS011;667;48.796;9.480;2022-10-16T07:16:16;4.70;;;4.30;;
1346;SDS011;667;48.796;9.480;2022-10-16T07:18:43;4.57;;;4.27;;
1346;SDS011;667;48.796;9.480;2022-10-16T07:21:12;4.80;;;4.20;;
1346;SDS011;667;48.796;9.480;2022-10-16T07:23:39;3.63;;;3.10;;
1346;SDS011;667;48.796;9.480;2022-10-16T07:26:06;5.63;;;4.00;;
1346;SDS011;667;48.796;9.480;2022-10-16T07:28:32;4.20;;;3.80;;
1346;SDS011;667;48.796;9.480;2022-10-16T07:31:05;7.80;;;4.07;;
1346;SDS011;667;48.796;9.480;2022-10-16T07:33:33;4.30;;;4.00;;
1346;SDS011;667;48.796;9.480;2022-10-16T07:35:59;4.20;;;3.77;;
1346;SDS011;667;48.796;9.480;2022-10-16T07:38:25;4.60;;;3.50;;
1346;SDS011;667;48.796;9.480;2022-10-16T07:41:00;7.17;;;4.00;;
1346;SDS011;667;48.796;9.480;2022-10-16T07:43:28;5.40;;;4.90;;
1346;SDS011;667;48.796;9.480;2022-10-16T07:45:54;6.57;;;5.73;;
1346;SDS011;667;48.796;9.480;2022-10-16T07:48:20;6.30;;;4.67;;
1346;SDS011;667;48.796;9.480;2022-10-16T07:50:46;10.43;;;4.90;;
1346;SDS011;667;48.796;9.480;2022-10-16T07:53:12;5.40;;;5.00;;
1346;SDS011;667;48.796;9.480;2022-10-16T07:55:38;6.33;;;5.33;;
1346;SDS011;667;48.796;9.480;2022-10-16T07:58:04;5.57;;;5.07;;
1346;SDS011;667;48.796;9.480;2022-10-16T08:00:30;5.93;;;5.33;;
1346;SDS011;667;48.796;9.480;2022-10-16T08:02:56;8.80;;;5.60;;
1346;SDS011;667;48.796;9.480;2022-10-16T08:05:25;7.67;;;5.50;;
1346;SDS011;667;48.796;9.480;2022-10-16T08:07:55;6.30;;;5.70;;
1346;SDS011;667;48.796;9.480;2022-10-16T08:10:22;5.50;;;5.10;;
1346;SDS011;667;48.796;9.480;2022-10-16T08:12:49;6.27;;;5.67;;
1346;SDS011;667;48.796;9.480;2022-10-16T08:15:15;7.83;;;6.00;;
1346;SDS011;667;48.796;9.480;2022-10-16T08:17:41;5.87;;;5.20;;
1346;SDS011;667;48.796;9.480;2022-10-16T08:20:07;5.77;;;5.27;;
1346;SDS011;667;48.796;9.480;2022-10-16T08:22:33;5.70;;;5.10;;
1346;SDS011;667;48.796;9.480;2022-10-16T08:24:59;7.07;;;6.10;;
1346;SDS011;667;48.796;9.480;2022-10-16T08:27:24;5.67;;;5.17;;
1346;SDS011;667;48.796;9.480;2022-10-16T08:29:50;5.30;;;4.80;;
1346;SDS011;667;48.796;9.480;2022-10-16T08:32:15;5.63;;;3.83;;
1346;SDS011;667;48.796;9.480;2022-10-16T08:34:41;4.93;;;4.43;;
1346;SDS011;667;48.796;9.480;2022-10-16T08:37:07;7.77;;;4.90;;
1346;SDS011;667;48.796;9.480;2022-10-16T08:39:36;5.80;;;5.07;;
1346;SDS011;667;48.796;9.480;2022-10-16T08:48:00;5.80;;;4.93;;
1346;SDS011;667;48.796;9.480;2022-10-16T08:50:29;6.20;;;4.87;;
1346;SDS011;667;48.796;9.480;2022-10-16T08:52:57;10.30;;;9.40;;
1346;SDS011;667;48.796;9.480;2022-10-16T08:55:43;8.77;;;8.07;;
1346;SDS011;667;48.796;9.480;2022-10-16T08:58:18;11.33;;;10.50;;
1346;SDS011;667;48.796;9.480;2022-10-16T09:00:49;8.60;;;7.93;;
1346;SDS011;667;48.796;9.480;2022-10-16T09:06:10;6.30;;;5.70;;
1346;SDS011;667;48.796;9.480;2022-10-16T09:14:19;3.87;;;3.57;;
1346;SDS011;667;48.796;9.480;2022-10-16T09:17:00;4.00;;;3.70;;
1346;SDS011;667;48.796;9.480;2022-10-16T09:19:38;6.67;;;3.80;;
1346;SDS011;667;48.796;9.480;2022-10-16T09:22:12;5.03;;;4.37;;
1346;SDS011;667;48.796;9.480;2022-10-16T09:24:40;4.20;;;3.90;;
1346;SDS011;667;48.796;9.480;2022-10-16T09:27:13;4.83;;;4.43;;
1346;SDS011;667;48.796;9.480;2022-10-16T09:29:40;4.67;;;4.27;;
1346;SDS011;667;48.796;9.480;2022-10-16T09:32:11;4.50;;;3.40;;
1346;SDS011;667;48.796;9.480;2022-10-16T09:34:45;3.73;;;3.07;;
1346;SDS011;667;48.796;9.480;2022-10-16T09:37:16;4.43;;;3.57;;
1346;SDS011;667;48.796;9.480;2022-10-16T09:39:44;4.17;;;3.60;;
1346;SDS011;667;48.796;9.480;2022-10-16T09:42:18;3.57;;;3.27;;
1346;SDS011;667;48.796;9.480;2022-10-16T09:44:48;6.27;;;2.97;;
1346;SDS011;667;48.796;9.480;2022-10-16T09:47:19;4.67;;;2.87;;
1346;SDS011;667;48.796;9.480;2022-10-16T09:52:21;3.83;;;3.40;;
1346;SDS011;667;48.796;9.480;2022-10-16T09:54:57;5.53;;;3.43;;
1346;SDS011;667;48.796;9.480;2022-10-16T09:57:25;3.63;;;2.80;;
1346;SDS011;667;48.796;9.480;2022-10-16T09:59:52;8.63;;;2.73;;
1346;SDS011;667;48.796;9.480;2022-10-16T10:02:37;3.83;;;3.03;;
1346;SDS011;667;48.796;9.480;2022-10-16T10:05:17;3.70;;;2.87;;
1346;SDS011;667;48.796;9.480;2022-10-16T10:07:53;4.80;;;2.30;;
1346;SDS011;667;48.796;9.480;2022-10-16T10:10:22;3.67;;;2.93;;
1346;SDS011;667;48.796;9.480;2022-10-16T10:12:53;2.53;;;2.33;;
1346;SDS011;667;48.796;9.480;2022-10-16T10:15:20;5.83;;;2.60;;
1346;SDS011;667;48.796;9.480;2022-10-16T10:17:52;3.87;;;3.03;;
1346;SDS011;667;48.796;9.480;2022-10-16T10:22:59;4.73;;;2.60;;
1346;SDS011;667;48.796;9.480;2022-10-16T10:36:12;3.03;;;2.53;;
1346;SDS011;667;48.796;9.480;2022-10-16T10:38:58;2.97;;;2.43;;
1346;SDS011;667;48.796;9.480;2022-10-16T10:55:03;3.43;;;2.30;;
1346;SDS011;667;48.796;9.480;2022-10-16T11:03:05;4.47;;;2.00;;
1346;SDS011;667;48.796;9.480;2022-10-16T11:05:57;2.10;;;1.90;;
1346;SDS011;667;48.796;9.480;2022-10-16T11:08:38;3.13;;;2.00;;
1346;SDS011;667;48.796;9.480;2022-10-16T11:14:22;3.07;;;2.00;;
1346;SDS011;667;48.796;9.480;2022-10-16T11:17:16;3.73;;;2.00;;
1346;SDS011;667;48.796;9.480;2022-10-16T11:20:16;2.50;;;2.00;;
1346;SDS011;667;48.796;9.480;2022-10-16T11:23:07;2.60;;;1.90;;
1346;SDS011;667;48.796;9.480;2022-10-16T11:25:39;1.90;;;1.70;;
1346;SDS011;667;48.796;9.480;2022-10-16T11:28:16;2.60;;;2.13;;
1346;SDS011;667;48.796;9.480;2022-10-16T11:35:55;2.20;;;1.70;;
1346;SDS011;667;48.796;9.480;2022-10-16T11:41:23;2.33;;;2.13;;
1346;SDS011;667;48.796;9.480;2022-10-16T11:46:49;3.33;;;2.30;;
1346;SDS011;667;48.796;9.480;2022-10-16T11:49:21;2.50;;;1.83;;
1346;SDS011;667;48.796;9.480;2022-10-16T11:54:36;2.50;;;2.30;;
1346;SDS011;667;48.796;9.480;2022-10-16T12:03:03;3.77;;;1.90;;
1346;SDS011;667;48.796;9.480;2022-10-16T12:06:01;3.83;;;1.57;;
1346;SDS011;667;48.796;9.480;2022-10-16T12:08:51;2.03;;;1.50;;
1346;SDS011;667;48.796;9.480;2022-10-16T12:14:03;2.07;;;1.67;;
1346;SDS011;667;48.796;9.480;2022-10-16T12:16:32;2.33;;;1.80;;
1346;SDS011;667;48.796;9.480;2022-10-16T12:19:14;2.03;;;1.83;;
1346;SDS011;667;48.796;9.480;2022-10-16T12:21:41;1.80;;;1.70;;
1346;SDS011;667;48.796;9.480;2022-10-16T12:27:05;1.97;;;1.87;;
1346;SDS011;667;48.796;9.480;2022-10-16T12:29:45;2.00;;;1.87;;
1346;SDS011;667;48.796;9.480;2022-10-16T12:32:26;3.00;;;2.00;;
1346;SDS011;667;48.796;9.480;2022-10-16T12:34:58;2.43;;;1.73;;
1346;SDS011;667;48.796;9.480;2022-10-16T12:39:55;3.20;;;1.53;;
1346;SDS011;667;48.796;9.480;2022-10-16T12:44:51;2.70;;;2.00;;
1346;SDS011;667;48.796;9.480;2022-10-16T12:47:19;3.17;;;2.00;;
1346;SDS011;667;48.796;9.480;2022-10-16T12:50:22;1.57;;;1.47;;
1346;SDS011;667;48.796;9.480;2022-10-16T12:52:48;2.27;;;1.70;;
1346;SDS011;667;48.796;9.480;2022-10-16T12:55:15;1.73;;;1.63;;
1346;SDS011;667;48.796;9.480;2022-10-16T13:03:04;2.03;;;1.93;;
1346;SDS011;667;48.796;9.480;2022-10-16T13:22:32;5.83;;;2.00;;
1346;SDS011;667;48.796;9.480;2022-10-16T13:32:48;3.43;;;1.80;;
1346;SDS011;667;48.796;9.480;2022-10-16T13:35:25;5.40;;;2.00;;
1346;SDS011;667;48.796;9.480;2022-10-16T13:38:02;4.40;;;1.90;;
1346;SDS011;667;48.796;9.480;2022-10-16T13:40:47;6.07;;;1.80;;
1346;SDS011;667;48.796;9.480;2022-10-16T13:43:13;4.10;;;2.00;;
1346;SDS011;667;48.796;9.480;2022-10-16T13:45:39;4.73;;;1.80;;
1346;SDS011;667;48.796;9.480;2022-10-16T13:48:05;2.60;;;1.90;;
1346;SDS011;667;48.796;9.480;2022-10-16T13:50:34;2.73;;;2.00;;
1346;SDS011;667;48.796;9.480;2022-10-16T13:53:03;3.40;;;2.00;;
1346;SDS011;667;48.796;9.480;2022-10-16T13:55:30;4.43;;;2.27;;
1346;SDS011;667;48.796;9.480;2022-10-16T13:58:04;2.50;;;2.27;;
1346;SDS011;667;48.796;9.480;2022-10-16T14:00:36;5.47;;;2.40;;
1346;SDS011;667;48.796;9.480;2022-10-16T14:03:07;4.90;;;2.33;;
1346;SDS011;667;48.796;9.480;2022-10-16T14:05:44;4.00;;;2.00;;
1346;SDS011;667;48.796;9.480;2022-10-16T14:08:14;9.93;;;3.40;;
1346;SDS011;667;48.796;9.480;2022-10-16T14:10:40;9.87;;;3.03;;
1346;SDS011;667;48.796;9.480;2022-10-16T14:13:06;5.37;;;2.60;;
1346;SDS011;667;48.796;9.480;2022-10-16T14:15:34;2.60;;;2.40;;
1346;SDS011;667;48.796;9.480;2022-10-16T14:18:01;8.53;;;3.40;;
1346;SDS011;667;48.796;9.480;2022-10-16T14:20:28;6.87;;;4.00;;
1346;SDS011;667;48.796;9.480;2022-10-16T14:28:35;4.37;;;2.20;;
1346;SDS011;667;48.796;9.480;2022-10-16T14:31:03;4.90;;;3.30;;
1346;SDS011;667;48.796;9.480;2022-10-16T14:33:48;10.63;;;3.37;;
1346;SDS011;667;48.796;9.480;2022-10-16T14:36:14;4.63;;;3.27;;
1346;SDS011;667;48.796;9.480;2022-10-16T14:38:48;4.57;;;3.10;;
1346;SDS011;667;48.796;9.480;2022-10-16T14:41:20;3.47;;;3.07;;
1346;SDS011;667;48.796;9.480;2022-10-16T14:43:49;9.10;;;3.77;;
1346;SDS011;667;48.796;9.480;2022-10-16T14:46:18;5.17;;;3.20;;
1346;SDS011;667;48.796;9.480;2022-10-16T14:48:46;4.57;;;2.07;;
1346;SDS011;667;48.796;9.480;2022-10-16T14:51:18;2.50;;;2.10;;
1346;SDS011;667;48.796;9.480;2022-10-16T14:53:44;4.93;;;2.23;;
1346;SDS011;667;48.796;9.480;2022-10-16T14:56:18;6.77;;;2.03;;
1346;SDS011;667;48.796;9.480;2022-10-16T14:58:46;6.17;;;2.13;;
1346;SDS011;667;48.796;9.480;2022-10-16T15:01:12;4.63;;;2.20;;
1346;SDS011;667;48.796;9.480;2022-10-16T15:03:38;3.67;;;2.47;;
1346;SDS011;667;48.796;9.480;2022-10-16T15:06:03;4.50;;;2.43;;
1346;SDS011;667;48.796;9.480;2022-10-16T15:08:38;4.10;;;2.17;;
1346;SDS011;667;48.796;9.480;2022-10-16T15:11:07;6.53;;;2.43;;
1346;SDS011;667;48.796;9.480;2022-10-16T15:13:45;6.10;;;1.93;;
1346;SDS011;667;48.796;9.480;2022-10-16T15:16:11;7.53;;;2.50;;
1346;SDS011;667;48.796;9.480;2022-10-16T15:18:39;5.17;;;2.10;;
1346;SDS011;667;48.796;9.480;2022-10-16T15:21:05;8.43;;;2.40;;
1346;SDS011;667;48.796;9.480;2022-10-16T15:23:31;4.47;;;2.67;;
1346;SDS011;667;48.796;9.480;2022-10-16T15:25:56;4.50;;;1.80;;
1346;SDS011;667;48.796;9.480;2022-10-16T15:28:23;3.93;;;1.83;;
1346;SDS011;667;48.796;9.480;2022-10-16T15:30:51;3.37;;;2.17;;
1346;SDS011;667;48.796;9.480;2022-10-16T15:33:19;5.20;;;2.00;;
1346;SDS011;667;48.796;9.480;2022-10-16T15:35:47;2.70;;;1.80;;
1346;SDS011;667;48.796;9.480;2022-10-16T15:38:15;3.50;;;2.93;;
1346;SDS011;667;48.796;9.480;2022-10-16T15:40:45;4.37;;;2.00;;
1346;SDS011;667;48.796;9.480;2022-10-16T15:43:14;8.43;;;3.80;;
1346;SDS011;667;48.796;9.480;2022-10-16T15:45:40;6.47;;;2.63;;
1346;SDS011;667;48.796;9.480;2022-10-16T15:48:06;8.23;;;2.30;;
1346;SDS011;667;48.796;9.480;2022-10-16T15:50:34;3.60;;;2.30;;
1346;SDS011;667;48.796;9.480;2022-10-16T15:53:03;3.17;;;1.97;;
1346;SDS011;667;48.796;9.480;2022-10-16T15:55:28;8.27;;;1.90;;
1346;SDS011;667;48.796;9.480;2022-10-16T15:57:54;5.80;;;2.40;;
1346;SDS011;667;48.796;9.480;2022-10-16T16:00:20;7.27;;;2.50;;
1346;SDS011;667;48.796;9.480;2022-10-16T16:02:52;2.07;;;1.87;;
1346;SDS011;667;48.796;9.480;2022-10-16T16:05:19;9.33;;;2.53;;
1346;SDS011;667;48.796;9.480;2022-10-16T16:07:46;7.73;;;2.70;;
1346;SDS011;667;48.796;9.480;2022-10-16T16:10:12;5.90;;;2.37;;
1346;SDS011;667;48.796;9.480;2022-10-16T16:12:38;4.10;;;2.00;;
1346;SDS011;667;48.796;9.480;2022-10-16T16:15:04;4.93;;;2.70;;
1346;SDS011;667;48.796;9.480;2022-10-16T16:17:31;8.37;;;2.30;;
1346;SDS011;667;48.796;9.480;2022-10-16T16:19:58;9.50;;;2.20;;
1346;SDS011;667;48.796;9.480;2022-10-16T16:22:29;4.37;;;2.20;;
1346;SDS011;667;48.796;9.480;2022-10-16T16:25:00;4.80;;;2.63;;
1346;SDS011;667;48.796;9.480;2022-10-16T16:27:26;6.30;;;3.10;;
1346;SDS011;667;48.796;9.480;2022-10-16T16:29:54;8.43;;;2.50;;
1346;SDS011;667;48.796;9.480;2022-10-16T16:32:20;4.60;;;3.40;;
1346;SDS011;667;48.796;9.480;2022-10-16T16:34:46;3.60;;;2.47;;
1346;SDS011;667;48.796;9.480;2022-10-16T16:37:12;3.33;;;2.40;;
1346;SDS011;667;48.796;9.480;2022-10-16T16:39:38;7.03;;;2.33;;
1346;SDS011;667;48.796;9.480;2022-10-16T16:42:03;9.23;;;3.17;;
1346;SDS011;667;48.796;9.480;2022-10-16T16:44:31;5.13;;;2.50;;
1346;SDS011;667;48.796;9.480;2022-10-16T16:46:57;5.50;;;2.73;;
1346;SDS011;667;48.796;9.480;2022-10-16T16:49:22;5.50;;;2.70;;
1346;SDS011;667;48.796;9.480;2022-10-16T16:51:49;3.73;;;3.07;;
1346;SDS011;667;48.796;9.480;2022-10-16T16:54:17;7.33;;;2.50;;
1346;SDS011;667;48.796;9.480;2022-10-16T16:56:43;4.03;;;2.40;;
1346;SDS011;667;48.796;9.480;2022-10-16T16:59:13;10.47;;;3.40;;
1346;SDS011;667;48.796;9.480;2022-10-16T17:01:40;4.53;;;2.23;;
1346;SDS011;667;48.796;9.480;2022-10-16T17:04:05;5.60;;;2.70;;
1346;SDS011;667;48.796;9.480;2022-10-16T17:06:31;9.47;;;3.73;;
1346;SDS011;667;48.796;9.480;2022-10-16T17:09:01;5.77;;;2.20;;
1346;SDS011;667;48.796;9.480;2022-10-16T17:11:28;4.07;;;2.87;;
1346;SDS011;667;48.796;9.480;2022-10-16T17:13:54;7.60;;;2.03;;
1346;SDS011;667;48.796;9.480;2022-10-16T17:16:21;3.03;;;2.70;;
1346;SDS011;667;48.796;9.480;2022-10-16T17:18:51;6.90;;;2.53;;
1346;SDS011;667;48.796;9.480;2022-10-16T17:21:18;5.53;;;2.93;;
1346;SDS011;667;48.796;9.480;2022-10-16T17:23:43;9.20;;;2.83;;
1346;SDS011;667;48.796;9.480;2022-10-16T17:26:11;7.43;;;2.87;;
1346;SDS011;667;48.796;9.480;2022-10-16T17:28:38;4.57;;;2.93;;
1346;SDS011;667;48.796;9.480;2022-10-16T17:31:15;5.10;;;2.50;;
1346;SDS011;667;48.796;9.480;2022-10-16T17:33:43;8.47;;;2.80;;
1346;SDS011;667;48.796;9.480;2022-10-16T17:36:09;6.73;;;2.53;;
1346;SDS011;667;48.796;9.480;2022-10-16T17:38:36;11.67;;;3.50;;
1346;SDS011;667;48.796;9.480;2022-10-16T17:41:15;8.27;;;4.00;;
1346;SDS011;667;48.796;9.480;2022-10-16T17:43:45;10.53;;;3.80;;
1346;SDS011;667;48.796;9.480;2022-10-16T17:46:12;5.47;;;3.60;;
1346;SDS011;667;48.796;9.480;2022-10-16T17:48:39;6.90;;;4.03;;
1346;SDS011;667;48.796;9.480;2022-10-16T17:51:07;10.20;;;3.33;;
1346;SDS011;667;48.796;9.480;2022-10-16T17:53:34;5.00;;;3.17;;
1346;SDS011;667;48.796;9.480;2022-10-16T17:56:01;4.37;;;2.40;;
1346;SDS011;667;48.796;9.480;2022-10-16T17:58:31;6.20;;;2.47;;
1346;SDS011;667;48.796;9.480;2022-10-16T18:00:57;9.00;;;3.60;;
1346;SDS011;667;48.796;9.480;2022-10-16T18:03:23;9.60;;;5.43;;